Time;durP1;ratioP1;P1;durP2;ratioP2;P2;SDS_P1;SDS_P2;PMS_P1;PMS_P2;Temp;Humidity;BMP_temperature;BMP_pressure;BME280_temperature;BME280_humidity;BME280_pressure;Samples;Min_cycle;Max_cycle;Signal;HPM_P1;HPM_P2
2023/03/11 00:00:33;;;;;;;2.45;1.27;;;;;;;-144.47;100.00;53142.09;5027915;28;20393;-68
2023/03/11 00:03:00;;;;;;;1.20;0.90;;;;;;;-144.47;100.00;53128.22;5028415;28;20017;-69
2023/03/11 00:05:32;;;;;;;1.52;1.15;;;;;;;-144.47;100.00;53116.28;5028767;28;20037;-69
2023/03/11 00:07:58;;;;;;;3.30;1.55;;;;;;;-144.47;100.00;53110.31;5041816;28;20028;-65
2023/03/11 00:10:30;;;;;;;3.17;1.73;;;;;;;-144.47;100.00;53098.41;5028425;28;20018;-71
2023/03/11 00:12:56;;;;;;;1.90;1.15;;;;;;;-144.47;100.00;53106.34;5036891;28;20026;-67
2023/03/11 00:15:21;;;;;;;1.90;1.27;;;;;;;-144.47;100.00;53124.22;5016559;28;20036;-68
2023/03/11 00:17:48;;;;;;;2.05;1.27;;;;;;;-144.47;100.00;53148.06;5024333;28;20022;-65
2023/03/11 00:20:26;;;;;;;2.50;1.45;;;;;;;-144.47;100.00;53096.41;5027329;28;20440;-68
2023/03/11 00:22:52;;;;;;;3.38;1.95;;;;;;;-144.47;100.00;53142.09;5010395;28;20021;-68
2023/03/11 00:25:20;;;;;;;4.13;2.13;;;;;;;-144.47;100.00;53136.16;5031527;28;20064;-67
2023/03/11 00:27:45;;;;;;;3.67;1.92;;;;;;;-144.47;100.00;53094.44;5042693;28;20033;-69
2023/03/11 00:30:12;;;;;;;3.58;2.05;;;;;;;-144.47;100.00;53146.09;5012058;28;20051;-67
2023/03/11 00:32:38;;;;;;;4.00;2.15;;;;;;;-144.47;100.00;53144.09;5027728;28;20448;-66
2023/03/11 00:35:04;;;;;;;3.50;1.83;;;;;;;-144.47;100.00;53171.91;5028544;28;20020;-69
2023/03/11 00:37:30;;;;;;;3.95;2.22;;;;;;;-144.47;100.00;53118.28;5041624;28;20031;-69
2023/03/11 00:39:55;;;;;;;4.10;2.38;;;;;;;-144.47;100.00;53154.03;5047835;28;20480;-69
2023/03/11 00:42:21;;;;;;;4.13;2.38;;;;;;;-144.47;100.00;53120.25;5047897;28;20071;-66
2023/03/11 00:44:46;;;;;;;4.45;2.63;;;;;;;-144.47;100.00;53138.13;5028449;28;20633;-68
2023/03/11 00:47:12;;;;;;;3.53;2.17;;;;;;;-144.47;100.00;53144.09;5027841;28;20463;-70
2023/03/11 00:49:38;;;;;;;7.18;3.20;;;;;;;-144.47;100.00;53158.00;5027609;28;20124;-67
2023/03/11 00:52:04;;;;;;;5.63;2.88;;;;;;;-144.47;100.00;53124.22;5027905;28;20511;-70
2023/03/11 00:54:29;;;;;;;3.92;2.05;;;;;;;-144.47;100.00;53152.03;5032410;28;20104;-71
2023/03/11 00:56:55;;;;;;;7.43;3.85;;;;;;;-144.47;100.00;53128.22;5035847;28;20133;-70
2023/03/11 00:59:20;;;;;;;6.53;3.22;;;;;;;-144.47;100.00;53187.78;5009152;28;20026;-67
2023/03/11 01:01:45;;;;;;;7.30;3.83;;;;;;;-144.47;100.00;53146.09;5037711;28;20043;-70
2023/03/11 01:04:11;;;;;;;10.05;4.32;;;;;;;-144.47;100.00;53122.25;5011338;28;20453;-68
2023/03/11 01:06:36;;;;;;;7.45;4.25;;;;;;;-144.47;100.00;53126.22;5027286;28;20029;-66
2023/03/11 01:09:04;;;;;;;9.18;4.63;;;;;;;-144.47;100.00;53163.97;5035227;28;20491;-69
2023/03/11 01:11:29;;;;;;;8.90;4.60;;;;;;;-144.47;100.00;53142.09;5027616;28;20109;-66
2023/03/11 01:13:55;;;;;;;7.32;3.90;;;;;;;-144.47;100.00;53144.09;5027744;28;20454;-69
2023/03/11 01:16:20;;;;;;;11.27;5.95;;;;;;;-144.47;100.00;53136.16;5021376;28;20060;-70
2023/03/11 01:18:46;;;;;;;10.18;5.82;;;;;;;-144.47;100.00;53130.19;5025051;28;20025;-66
2023/03/11 01:21:12;;;;;;;9.68;5.97;;;;;;;-144.47;100.00;53124.22;5009777;28;20021;-69
2023/03/11 01:23:38;;;;;;;11.35;5.80;;;;;;;-144.47;100.00;53114.31;5040555;28;20106;-68
2023/03/11 01:26:04;;;;;;;8.77;4.55;;;;;;;-144.47;100.00;53124.22;5035171;28;20497;-71
2023/03/11 01:28:29;;;;;;;9.13;6.20;;;;;;;-144.47;100.00;53138.13;5036672;28;20030;-68
2023/03/11 01:30:54;;;;;;;7.55;4.45;;;;;;;-144.47;100.00;53154.03;5026835;28;20515;-69
2023/03/11 01:33:20;;;;;;;9.50;5.25;;;;;;;-144.47;100.00;53130.19;5020282;28;20090;-70
2023/03/11 01:35:48;;;;;;;9.52;5.30;;;;;;;-144.47;100.00;53173.88;5027016;28;20029;-67
2023/03/11 01:38:14;;;;;;;7.22;3.97;;;;;;;-144.47;100.00;53130.19;5024655;28;20083;-69
2023/03/11 01:40:45;;;;;;;8.27;4.78;;;;;;;-144.47;100.00;53160.00;5027347;28;20017;-69
2023/03/11 01:43:35;;;;;;;9.95;3.80;;;;;;;-144.47;100.00;53167.94;5032073;28;20075;-69
2023/03/11 01:46:03;;;;;;;8.48;4.28;;;;;;;-144.47;100.00;53158.00;5009440;28;20033;-69
2023/03/11 01:48:29;;;;;;;10.57;5.47;;;;;;;-144.47;100.00;53148.06;5026762;28;20400;-67
2023/03/11 01:50:55;;;;;;;5.28;2.90;;;;;;;-144.47;100.00;53177.88;5026836;28;20737;-68
2023/03/11 01:53:22;;;;;;;6.18;3.47;;;;;;;-144.47;100.00;53148.06;5027149;28;20032;-66
2023/03/11 01:55:48;;;;;;;5.55;3.20;;;;;;;-144.47;100.00;53152.03;5042020;28;20059;-68
2023/03/11 01:58:18;;;;;;;8.75;5.35;;;;;;;-144.47;100.00;53152.03;5037575;28;20603;-69
2023/03/11 02:00:43;;;;;;;9.18;4.47;;;;;;;-144.47;100.00;53167.94;5026105;28;20111;-66
2023/03/11 02:03:17;;;;;;;7.63;3.83;;;;;;;-144.47;100.00;53130.19;5026866;28;20025;-69
2023/03/11 02:05:43;;;;;;;8.38;4.38;;;;;;;-144.47;100.00;53142.09;5026746;28;20022;-66
2023/03/11 02:08:09;;;;;;;9.15;4.78;;;;;;;-144.47;100.00;53152.03;5031048;28;20027;-70
2023/03/11 02:10:37;;;;;;;8.15;4.93;;;;;;;-144.47;100.00;53122.25;5042735;28;20037;-68
2023/03/11 02:13:03;;;;;;;8.15;4.40;;;;;;;-144.47;100.00;53173.88;5028650;28;20033;-68
2023/03/11 02:15:28;;;;;;;14.43;7.88;;;;;;;-144.47;100.00;53142.09;5017395;28;20522;-68
2023/03/11 02:17:55;;;;;;;8.65;5.43;;;;;;;-144.47;100.00;53140.13;5022232;28;20018;-67
2023/03/11 02:20:23;;;;;;;10.82;6.78;;;;;;;-144.47;100.00;53169.91;5030158;28;20021;-70
2023/03/11 02:22:48;;;;;;;9.40;5.75;;;;;;;-144.47;100.00;53163.97;5030168;28;20498;-68
2023/03/11 02:25:36;;;;;;;10.32;6.50;;;;;;;-144.47;100.00;53116.28;5033308;28;20104;-68
2023/03/11 02:28:06;;;;;;;14.00;6.28;;;;;;;-144.47;100.00;53179.84;5040599;28;20032;-69
2023/03/11 02:30:33;;;;;;;10.65;6.22;;;;;;;-144.47;100.00;53161.97;5029466;28;20066;-69
2023/03/11 02:33:00;;;;;;;8.70;4.60;;;;;;;-144.47;100.00;53134.16;5028937;28;20510;-65
2023/03/11 02:35:25;;;;;;;12.55;5.55;;;;;;;-144.47;100.00;53128.22;5029611;28;20123;-64
2023/03/11 02:37:52;;;;;;;9.77;4.97;;;;;;;-144.47;100.00;53148.06;5025897;28;20490;-68
2023/03/11 02:40:20;;;;;;;7.53;4.50;;;;;;;-144.47;100.00;53142.09;5038328;28;20063;-68
2023/03/11 02:42:46;;;;;;;11.07;5.93;;;;;;;-144.47;100.00;53177.88;5036645;28;20021;-66
2023/03/11 02:45:15;;;;;;;8.52;3.78;;;;;;;-144.47;100.00;53120.25;5040870;28;20032;-68
2023/03/11 02:47:41;;;;;;;12.25;6.07;;;;;;;-144.47;100.00;53146.09;5011957;28;20025;-69
2023/03/11 02:50:09;;;;;;;9.25;4.65;;;;;;;-144.47;100.00;53152.03;5031038;28;20343;-67
2023/03/11 02:52:35;;;;;;;10.15;5.85;;;;;;;-144.47;100.00;53152.03;5028581;28;20033;-69
2023/03/11 02:55:01;;;;;;;10.68;5.90;;;;;;;-144.47;100.00;53138.13;5040703;28;20029;-67
2023/03/11 02:57:26;;;;;;;15.48;6.50;;;;;;;-144.47;100.00;53165.94;5029768;28;20045;-65
2023/03/11 02:59:52;;;;;;;9.57;5.22;;;;;;;-144.47;100.00;53146.09;5031823;28;20088;-68
2023/03/11 03:02:17;;;;;;;7.55;4.28;;;;;;;-144.47;100.00;53158.00;5032488;28;20029;-66
2023/03/11 03:04:43;;;;;;;10.15;5.20;;;;;;;-144.47;100.00;53160.00;5033450;28;20053;-70
2023/03/11 03:07:09;;;;;;;10.95;5.72;;;;;;;-144.47;100.00;53150.06;5032191;28;20052;-65
2023/03/11 03:09:35;;;;;;;10.40;5.32;;;;;;;-144.47;100.00;53150.06;5040813;28;20112;-68
2023/03/11 03:12:01;;;;;;;11.45;5.78;;;;;;;-144.47;100.00;53140.13;5037197;28;20052;-67
2023/03/11 03:14:26;;;;;;;12.10;6.40;;;;;;;-144.47;100.00;53160.00;5053019;28;20021;-64
2023/03/11 03:16:52;;;;;;;11.32;6.75;;;;;;;-144.47;100.00;53156.00;5023678;28;20129;-68
2023/03/11 03:19:18;;;;;;;10.10;6.18;;;;;;;-144.47;100.00;53152.03;5040331;28;20049;-68
2023/03/11 03:21:43;;;;;;;10.82;5.63;;;;;;;-144.47;100.00;53122.25;5029786;28;20100;-68
2023/03/11 03:24:08;;;;;;;12.75;6.28;;;;;;;-144.47;100.00;53150.06;5029035;28;20022;-64
2023/03/11 03:26:37;;;;;;;8.77;5.35;;;;;;;-144.47;100.00;53126.22;5035374;28;20021;-68
2023/03/11 03:29:04;;;;;;;8.98;5.30;;;;;;;-144.47;100.00;53142.09;5040936;28;20075;-67
2023/03/11 03:31:29;;;;;;;11.27;5.53;;;;;;;-144.47;100.00;53146.09;5029218;28;20033;-66
2023/03/11 03:33:57;;;;;;;8.77;4.88;;;;;;;-144.47;100.00;53124.22;5029339;28;20097;-67
2023/03/11 03:36:23;;;;;;;9.70;5.32;;;;;;;-144.47;100.00;53152.03;5031735;28;20454;-68
2023/03/11 03:38:53;;;;;;;10.25;5.30;;;;;;;-144.47;100.00;53100.41;5029789;28;20033;-64
2023/03/11 03:41:18;;;;;;;12.48;5.65;;;;;;;-144.47;100.00;53142.09;5029663;28;20037;-68
2023/03/11 03:43:43;;;;;;;11.35;5.10;;;;;;;-144.47;100.00;53144.09;5029516;28;20329;-68
2023/03/11 03:46:09;;;;;;;11.73;6.35;;;;;;;-144.47;100.00;53118.28;5031448;28;20056;-65
2023/03/11 03:48:34;;;;;;;11.07;6.20;;;;;;;-144.47;100.00;53167.94;5039419;28;20570;-68
2023/03/11 03:51:09;;;;;;;8.88;4.97;;;;;;;-144.47;100.00;53146.09;5029370;28;20035;-68
2023/03/11 03:53:35;;;;;;;9.35;5.45;;;;;;;-144.47;100.00;53148.06;5039701;28;20024;-67
2023/03/11 03:56:02;;;;;;;10.60;5.72;;;;;;;-144.47;100.00;53158.00;5045475;28;20085;-64
2023/03/11 03:58:28;;;;;;;12.27;6.40;;;;;;;-144.47;100.00;53138.13;5028695;28;20479;-64
2023/03/11 04:00:57;;;;;;;10.68;5.78;;;;;;;-144.47;100.00;53142.09;5028600;28;20029;-67
2023/03/11 04:03:24;;;;;;;14.82;7.93;;;;;;;-144.47;100.00;53146.09;5028949;28;20475;-66
2023/03/11 04:05:49;;;;;;;12.40;6.78;;;;;;;-144.47;100.00;53116.28;5033081;28;20035;-66
2023/03/11 04:08:15;;;;;;;10.48;5.25;;;;;;;-144.47;100.00;53136.16;5043353;28;20713;-68
2023/03/11 04:10:40;;;;;;;13.55;6.57;;;;;;;-144.47;100.00;53146.09;5049217;28;20029;-65
2023/03/11 04:13:05;;;;;;;13.65;6.53;;;;;;;-144.47;100.00;53140.13;5037852;28;20404;-66
2023/03/11 04:15:31;;;;;;;10.88;5.32;;;;;;;-144.47;100.00;53138.13;5028367;28;20125;-66
2023/03/11 04:17:56;;;;;;;13.55;7.32;;;;;;;-144.47;100.00;53110.31;5020471;28;20029;-66
2023/03/11 04:20:22;;;;;;;11.43;5.95;;;;;;;-144.47;100.00;53150.06;5028438;28;20033;-67
2023/03/11 04:22:47;;;;;;;16.25;6.13;;;;;;;-144.47;100.00;53148.06;5028578;28;20103;-66
2023/03/11 04:25:12;;;;;;;11.60;6.00;;;;;;;-144.47;100.00;53110.31;5031570;28;20040;-68
2023/03/11 04:27:41;;;;;;;12.25;6.25;;;;;;;-144.47;100.00;53138.13;5040218;28;20107;-65
2023/03/11 04:30:08;;;;;;;12.57;6.07;;;;;;;-144.47;100.00;53130.19;5034386;28;20022;-64
2023/03/11 04:32:33;;;;;;;11.85;5.43;;;;;;;-144.47;100.00;53126.22;5031803;28;20028;-66
2023/03/11 04:34:58;;;;;;;12.95;5.65;;;;;;;-144.47;100.00;53138.13;5032882;28;20024;-66
2023/03/11 04:37:27;;;;;;;11.40;5.88;;;;;;;-144.47;100.00;53138.13;5047536;28;20276;-67
2023/03/11 04:39:53;;;;;;;12.40;5.05;;;;;;;-144.47;100.00;53161.97;5034448;28;20128;-67
2023/03/11 04:42:18;;;;;;;9.13;5.00;;;;;;;-144.47;100.00;53108.34;5030790;28;20032;-65
2023/03/11 04:44:43;;;;;;;6.97;3.47;;;;;;;-144.47;100.00;53144.09;5018335;28;20017;-67
2023/03/11 04:47:09;;;;;;;9.68;5.20;;;;;;;-144.47;100.00;53144.09;5031473;28;20025;-66
2023/03/11 04:49:35;;;;;;;9.02;5.40;;;;;;;-144.47;100.00;53144.09;5040973;28;20040;-68
2023/03/11 04:52:00;;;;;;;6.88;4.22;;;;;;;-144.47;100.00;53150.06;5045909;28;20037;-65
2023/03/11 04:54:26;;;;;;;9.98;5.03;;;;;;;-144.47;100.00;53132.19;5030674;28;20253;-66
2023/03/11 04:56:51;;;;;;;11.70;6.50;;;;;;;-144.47;100.00;53120.25;5030018;28;20131;-68
2023/03/11 04:59:17;;;;;;;11.02;5.80;;;;;;;-144.47;100.00;53104.38;5034923;28;20360;-65
2023/03/11 05:01:42;;;;;;;10.55;5.28;;;;;;;-144.47;100.00;53144.09;5022278;28;20077;-67
2023/03/11 05:04:07;;;;;;;10.80;5.65;;;;;;;-144.47;100.00;53138.13;5030359;28;20013;-65
2023/03/11 05:06:33;;;;;;;11.23;6.55;;;;;;;-144.47;100.00;53118.28;5031469;28;20052;-66
2023/03/11 05:08:58;;;;;;;9.15;5.25;;;;;;;-144.47;100.00;53134.16;5041710;28;20025;-66
2023/03/11 05:11:24;;;;;;;12.27;6.50;;;;;;;-144.47;100.00;53128.22;5028211;28;20506;-66
2023/03/11 05:13:49;;;;;;;14.98;7.57;;;;;;;-144.47;100.00;53132.19;5045503;28;20075;-67
2023/03/11 05:16:15;;;;;;;11.98;6.15;;;;;;;-144.47;100.00;53154.03;5016238;28;20022;-66
2023/03/11 05:18:41;;;;;;;13.85;6.07;;;;;;;-144.47;100.00;53140.13;5024924;28;20524;-66
2023/03/11 05:21:06;;;;;;;9.98;5.35;;;;;;;-144.47;100.00;53142.09;5027941;28;20096;-65
2023/03/11 05:23:31;;;;;;;13.90;6.90;;;;;;;-144.47;100.00;53118.28;5028195;28;20494;-66
2023/03/11 05:25:57;;;;;;;12.30;6.90;;;;;;;-144.47;100.00;53126.22;5023879;28;20025;-68
2023/03/11 05:28:22;;;;;;;15.85;7.03;;;;;;;-144.47;100.00;53100.41;5037453;28;20044;-67
2023/03/11 05:30:48;;;;;;;11.40;6.40;;;;;;;-144.47;100.00;53142.09;5027991;28;20033;-66
2023/03/11 05:33:13;;;;;;;13.50;6.60;;;;;;;-144.47;100.00;53138.13;5021262;28;20029;-68
2023/03/11 05:35:39;;;;;;;15.70;7.35;;;;;;;-144.47;100.00;53132.19;5027840;28;20080;-67
2023/03/11 05:38:04;;;;;;;13.52;6.47;;;;;;;-144.47;100.00;53124.22;5030131;28;20399;-67
2023/03/11 05:40:30;;;;;;;14.15;6.90;;;;;;;-144.47;100.00;53126.22;5027608;28;20025;-68
2023/03/11 05:42:55;;;;;;;16.52;7.13;;;;;;;-144.47;100.00;53120.25;5027897;28;20144;-66
2023/03/11 05:45:20;;;;;;;14.27;6.07;;;;;;;-144.47;100.00;53114.31;5033474;28;20041;-69
2023/03/11 05:47:45;;;;;;;12.02;6.47;;;;;;;-144.47;100.00;53146.09;5028636;28;20121;-66
2023/03/11 05:50:11;;;;;;;12.00;6.05;;;;;;;-144.47;100.00;53108.34;5040865;28;20028;-70
2023/03/11 05:52:37;;;;;;;14.23;6.47;;;;;;;-144.47;100.00;53130.19;5035661;28;20026;-66
2023/03/11 05:55:02;;;;;;;10.25;5.75;;;;;;;-144.47;100.00;53144.09;5037354;28;20151;-66
2023/03/11 05:57:28;;;;;;;14.48;6.85;;;;;;;-144.47;100.00;53142.09;5032054;28;20021;-68
2023/03/11 05:59:53;;;;;;;16.27;6.85;;;;;;;-144.47;100.00;53154.03;5032712;28;20682;-67
2023/03/11 06:02:19;;;;;;;15.90;5.45;;;;;;;-144.47;100.00;53152.03;5031597;28;20087;-69
2023/03/11 06:04:45;;;;;;;13.90;4.78;;;;;;;-144.47;100.00;53116.28;5031337;28;20021;-67
2023/03/11 06:07:12;;;;;;;10.05;5.65;;;;;;;-144.47;100.00;53134.16;5031488;28;20052;-70
2023/03/11 06:09:37;;;;;;;10.05;4.57;;;;;;;-144.47;100.00;53126.22;5042827;28;20022;-68
2023/03/11 06:12:03;;;;;;;9.73;4.78;;;;;;;-144.47;100.00;53098.41;5032783;28;20055;-70
2023/03/11 06:14:30;;;;;;;10.25;4.57;;;;;;;-144.47;100.00;53104.38;5033196;28;20108;-70
2023/03/11 06:16:57;;;;;;;10.27;4.65;;;;;;;-144.47;100.00;53120.25;5009458;28;20232;-69
2023/03/11 06:19:26;;;;;;;6.88;4.07;;;;;;;-144.47;100.00;53138.13;5034135;28;20450;-70
2023/03/11 06:21:51;;;;;;;10.13;4.30;;;;;;;-144.47;100.00;53136.16;5041691;28;20455;-70
2023/03/11 06:24:17;;;;;;;7.53;3.58;;;;;;;-144.47;100.00;53116.28;5032370;28;20025;-69
2023/03/11 06:26:43;;;;;;;8.75;5.03;;;;;;;-144.47;100.00;53120.25;5031064;28;20036;-71
2023/03/11 06:29:12;;;;;;;9.85;4.63;;;;;;;-144.47;100.00;53130.19;5031037;28;20033;-71
2023/03/11 06:31:38;;;;;;;9.20;4.03;;;;;;;-144.47;100.00;53144.09;5030802;28;20029;-69
2023/03/11 06:34:05;;;;;;;11.63;5.22;;;;;;;-144.47;100.00;53140.13;5030231;28;20026;-67
2023/03/11 06:36:31;;;;;;;10.82;5.20;;;;;;;-144.47;100.00;53132.19;5034694;28;20407;-66
2023/03/11 06:38:56;;;;;;;17.52;5.28;;;;;;;-144.47;100.00;53136.16;5031100;28;20518;-70
2023/03/11 06:41:22;;;;;;;10.00;5.25;;;;;;;-144.47;100.00;53128.22;5030283;28;20029;-69
2023/03/11 06:43:48;;;;;;;8.80;4.07;;;;;;;-144.47;100.00;53120.25;5030348;28;20022;-69
2023/03/11 06:46:19;;;;;;;10.10;4.78;;;;;;;-144.47;100.00;53114.31;5030715;28;20031;-67
2023/03/11 06:48:45;;;;;;;9.80;4.30;;;;;;;-144.47;100.00;53124.22;5030067;28;20028;-66
2023/03/11 06:51:11;;;;;;;12.80;5.15;;;;;;;-144.47;100.00;53136.16;5029091;28;20029;-70
2023/03/11 06:53:37;;;;;;;14.65;5.25;;;;;;;-144.47;100.00;53136.16;5041057;28;20041;-69
2023/03/11 06:56:06;;;;;;;8.77;4.97;;;;;;;-144.47;100.00;53136.16;5029218;28;20574;-68
2023/03/11 06:58:34;;;;;;;6.57;3.42;;;;;;;-144.47;100.00;53128.22;5031364;28;20040;-69
2023/03/11 07:01:05;;;;;;;9.20;4.40;;;;;;;-144.47;100.00;53128.22;5019642;28;20052;-71
2023/03/11 07:03:31;;;;;;;8.93;4.60;;;;;;;-144.47;100.00;53118.28;5050579;28;20021;-69
2023/03/11 07:05:57;;;;;;;10.63;4.43;;;;;;;-144.47;100.00;53134.16;5032826;28;20055;-66
2023/03/11 07:08:23;;;;;;;7.10;3.85;;;;;;;-144.47;100.00;53128.22;5027801;28;20075;-69
2023/03/11 07:11:11;;;;;;;9.75;4.70;;;;;;;-144.47;100.00;53138.13;5032784;28;20104;-67
2023/03/11 07:13:36;;;;;;;7.97;4.18;;;;;;;-144.47;100.00;53104.38;5012227;28;20056;-68
2023/03/11 07:16:05;;;;;;;7.25;4.03;;;;;;;-144.47;100.00;53118.28;5035356;28;20049;-66
2023/03/11 07:18:31;;;;;;;5.88;3.05;;;;;;;-144.47;100.00;53158.00;5032477;28;20025;-67
2023/03/11 07:20:56;;;;;;;10.10;4.65;;;;;;;-144.47;100.00;53122.25;5032406;28;20374;-70
2023/03/11 07:23:22;;;;;;;6.50;4.05;;;;;;;-144.47;99.44;53110.31;5023301;28;20021;-65
2023/03/11 07:25:48;;;;;;;8.38;4.35;;;;;;;-144.47;99.09;53142.09;5032376;28;20463;-65
2023/03/11 07:28:13;;;;;;;9.57;5.25;;;;;;;-144.47;99.83;53092.44;5021206;28;20025;-69
2023/03/11 07:30:39;;;;;;;10.52;3.90;;;;;;;-144.47;99.39;53114.31;5025508;28;20032;-67
2023/03/11 07:33:04;;;;;;;10.43;4.70;;;;;;;-144.47;99.15;53110.31;5031249;28;20085;-65
2023/03/11 07:35:30;;;;;;;9.30;4.55;;;;;;;-144.47;99.62;53110.31;5028436;28;20024;-68
2023/03/11 07:37:55;;;;;;;8.57;4.07;;;;;;;-144.47;99.41;53134.16;5030148;28;20750;-69
2023/03/11 07:40:21;;;;;;;11.13;3.78;;;;;;;-144.47;99.93;53106.34;5025191;28;20534;-68
2023/03/11 07:42:46;;;;;;;6.43;3.42;;;;;;;-144.47;99.52;53096.41;5025977;28;20029;-67
2023/03/11 07:45:11;;;;;;;10.07;4.20;;;;;;;-144.47;99.10;53122.25;5025993;28;20082;-65
2023/03/11 07:47:39;;;;;;;7.32;4.00;;;;;;;-144.47;99.45;53096.41;5027487;28;20594;-68
2023/03/11 07:50:05;;;;;;;9.50;3.47;;;;;;;-144.47;99.30;53116.28;5025680;28;20124;-70
2023/03/11 07:52:31;;;;;;;9.45;3.63;;;;;;;-144.47;99.92;53112.31;5023715;28;20113;-65
2023/03/11 07:54:58;;;;;;;9.93;3.97;;;;;;;-144.47;99.91;53130.19;5007269;28;20066;-70
2023/03/11 07:57:23;;;;;;;7.43;3.92;;;;;;;-144.47;99.81;53124.22;5009526;28;20029;-71
2023/03/11 07:59:49;;;;;;;9.38;3.85;;;;;;;-144.47;99.99;53098.41;5010159;28;20087;-66
2023/03/11 08:02:14;;;;;;;17.27;4.50;;;;;;;-144.47;99.86;53126.22;5030010;28;20068;-68
2023/03/11 08:04:40;;;;;;;7.47;3.75;;;;;;;-144.47;98.98;53116.28;5025697;28;20481;-67
2023/03/11 08:07:05;;;;;;;9.57;4.68;;;;;;;-144.47;99.80;53112.31;5024576;28;20541;-67
2023/03/11 08:09:30;;;;;;;8.38;4.43;;;;;;;-144.47;99.67;53110.31;5024242;28;20852;-67
2023/03/11 08:11:59;;;;;;;19.20;5.18;;;;;;;-144.47;99.96;53116.28;5032162;28;20521;-71
2023/03/11 08:14:25;;;;;;;7.93;3.80;;;;;;;-144.47;100.00;53090.47;5026111;28;20044;-68
2023/03/11 08:16:50;;;;;;;12.60;3.80;;;;;;;-144.47;100.00;53106.34;5022918;28;20033;-67
2023/03/11 08:19:16;;;;;;;8.13;3.95;;;;;;;-144.47;100.00;53096.41;5024619;28;20550;-67
2023/03/11 08:21:41;;;;;;;11.60;4.20;;;;;;;-144.47;100.00;53138.13;5026435;28;20143;-68
2023/03/11 08:24:09;;;;;;;11.70;4.93;;;;;;;-144.47;100.00;53102.38;5024802;28;20053;-68
2023/03/11 08:26:34;;;;;;;8.40;4.15;;;;;;;-144.47;100.00;53108.34;5024801;28;20040;-69
2023/03/11 08:29:00;;;;;;;9.02;4.72;;;;;;;-144.47;99.48;53102.38;5028458;28;20029;-68
2023/03/11 08:31:28;;;;;;;5.88;3.13;;;;;;;-144.47;99.38;53114.31;5024807;28;20045;-69
2023/03/11 08:33:59;;;;;;;10.43;4.20;;;;;;;-144.47;98.07;53114.31;5024649;28;20028;-69
2023/03/11 08:36:25;;;;;;;7.93;3.88;;;;;;;-144.47;97.23;53108.34;5023302;28;20043;-68
2023/03/11 08:38:50;;;;;;;7.70;3.00;;;;;;;-144.47;96.14;53110.31;5026446;28;20054;-67
2023/03/11 08:41:16;;;;;;;7.05;3.10;;;;;;;-144.47;95.61;53116.28;5023271;28;20485;-67
2023/03/11 08:43:43;;;;;;;9.38;3.38;;;;;;;-144.47;96.40;53110.31;5025163;28;20233;-68
2023/03/11 08:46:32;;;;;;;6.72;3.08;;;;;;;-144.47;95.04;53126.22;5022238;28;20781;-68
2023/03/11 08:48:58;;;;;;;7.30;3.47;;;;;;;-144.47;95.00;53088.47;5025032;28;20126;-69
2023/03/11 08:51:24;;;;;;;6.32;3.42;;;;;;;-144.47;94.58;53088.47;5024962;28;20017;-68
2023/03/11 08:53:51;;;;;;;9.27;3.80;;;;;;;-144.47;94.05;53114.31;5024464;28;20056;-68
2023/03/11 08:56:17;;;;;;;17.27;3.80;;;;;;;-144.47;92.79;53110.31;5025597;28;20045;-67
2023/03/11 08:58:42;;;;;;;7.68;3.67;;;;;;;-144.47;93.27;53112.31;5027893;28;20028;-67
2023/03/11 09:01:09;;;;;;;5.70;3.63;;;;;;;-144.47;93.30;53076.56;5016120;28;20093;-68
2023/03/11 09:03:35;;;;;;;8.85;3.38;;;;;;;-144.47;93.84;53080.53;5022804;28;20029;-68
2023/03/11 09:06:04;;;;;;;5.60;2.92;;;;;;;-144.47;94.00;53080.53;5028149;28;20095;-68
2023/03/11 09:08:29;;;;;;;;;;;;;;;-144.47;92.34;53114.31;5022152;28;20570;-68
2023/03/11 09:10:55;;;;;;;7.32;3.30;;;;;;;-144.47;91.49;53088.47;5026129;28;20019;-69
2023/03/11 09:13:21;;;;;;;5.93;3.17;;;;;;;-144.47;91.55;53100.41;5026531;28;20462;-75
2023/03/11 09:15:50;;;;;;;10.65;3.38;;;;;;;-144.47;92.15;53102.38;5029271;28;20064;-65
2023/03/11 09:18:16;;;;;;;14.75;4.70;;;;;;;-144.47;91.67;53120.25;5030808;28;20037;-72
2023/03/11 09:20:43;;;;;;;13.90;4.22;;;;;;;-144.47;91.51;53116.28;5007891;28;20538;-71
2023/03/11 09:23:10;;;;;;;6.03;3.20;;;;;;;-144.47;87.61;53118.28;5028489;28;20485;-74
2023/03/11 09:25:36;;;;;;;5.03;2.90;;;;;;;-144.47;88.73;53102.38;5027482;28;20032;-70
2023/03/11 09:28:01;;;;;;;5.82;3.22;;;;;;;-144.47;88.79;53072.59;5028846;28;20070;-70
2023/03/11 09:30:27;;;;;;;8.35;3.88;;;;;;;-144.47;88.48;53112.31;5024932;28;20462;-71
2023/03/11 09:32:52;;;;;;;6.95;3.42;;;;;;;-144.47;87.90;53074.56;5029974;28;20029;-71
2023/03/11 09:35:18;;;;;;;6.03;3.20;;;;;;;-144.47;87.58;53086.50;5010483;28;20534;-70
2023/03/11 09:37:43;;;;;;;5.80;2.58;;;;;;;-144.47;85.64;53066.63;5030767;28;20039;-67
2023/03/11 09:40:17;;;;;;;9.25;2.75;;;;;;;-144.47;86.50;53084.50;5035167;28;20052;-64
2023/03/11 09:42:47;;;;;;;7.47;3.22;;;;;;;-144.47;84.85;53078.53;5030481;28;20137;-67
2023/03/11 09:45:20;;;;;;;7.57;3.25;;;;;;;-144.47;85.38;53100.41;5028086;28;20707;-66
2023/03/11 09:48:20;;;;;;;6.25;3.25;;;;;;;-144.47;85.77;53096.41;5027543;28;20064;-68
2023/03/11 09:51:07;;;;;;;7.40;3.42;;;;;;;-144.47;84.87;53048.75;5027264;28;20071;-66
2023/03/11 09:53:42;;;;;;;5.10;3.00;;;;;;;-144.47;84.63;53066.63;5027966;28;21424;-67
2023/03/11 09:56:16;;;;;;;7.75;3.70;;;;;;;-144.47;85.18;53064.66;5028238;28;20025;-73
2023/03/11 09:58:50;;;;;;;5.95;3.58;;;;;;;-144.47;83.51;53076.56;5012750;28;20127;-71
2023/03/11 10:01:21;;;;;;;6.00;3.20;;;;;;;-144.47;84.11;53052.72;5009377;28;20033;-73
2023/03/11 10:03:51;;;;;;;9.40;3.45;;;;;;;-144.47;84.12;53064.66;5030943;28;20025;-72
2023/03/11 10:06:21;;;;;;;8.55;3.33;;;;;;;-144.47;85.05;53070.59;5028509;28;20388;-71
2023/03/11 10:09:08;;;;;;;7.55;4.05;;;;;;;-144.47;83.49;53070.59;5027380;28;20045;-72
2023/03/11 10:11:55;;;;;;;5.90;2.95;;;;;;;-144.47;81.13;53048.75;5028087;28;20041;-72
2023/03/11 10:14:20;;;;;;;6.68;2.92;;;;;;;-144.47;80.38;53024.91;5027600;28;20037;-72
2023/03/11 10:17:00;;;;;;;5.07;2.70;;;;;;;-144.47;79.27;53088.47;5027728;28;20044;-72
2023/03/11 10:19:41;;;;;;;4.13;2.30;;;;;;;-144.47;78.82;53048.75;5028851;28;20086;-71
2023/03/11 10:22:30;;;;;;;7.90;2.47;;;;;;;-144.47;77.46;53068.63;5025311;28;20059;-72
2023/03/11 10:25:15;;;;;;;7.55;2.72;;;;;;;-144.47;79.51;53086.50;5024810;28;20105;-73
2023/03/11 10:27:47;;;;;;;9.35;3.25;;;;;;;-144.47;77.08;53062.66;5030692;28;20033;-74
2023/03/11 10:30:30;;;;;;;7.55;3.08;;;;;;;-144.47;76.35;53054.72;5026513;28;20744;-75
2023/03/11 10:33:21;;;;;;;6.07;2.38;;;;;;;-144.47;76.00;53062.66;5024802;28;20178;-67
2023/03/11 10:35:51;;;;;;;6.43;3.35;;;;;;;-144.47;76.31;53054.72;5023733;28;20045;-66
2023/03/11 10:38:48;;;;;;;4.10;2.30;;;;;;;-144.47;76.71;53046.75;5029333;28;20038;-69
2023/03/11 10:41:29;;;;;;;5.65;2.88;;;;;;;-144.47;76.30;53036.84;5021041;28;20033;-68
2023/03/11 10:44:23;;;;;;;6.70;3.05;;;;;;;-144.47;78.12;53088.47;5027993;28;20036;-66
2023/03/11 10:46:48;;;;;;;6.28;2.97;;;;;;;-144.47;79.12;53078.53;5028045;28;20237;-65
2023/03/11 10:49:16;;;;;;;6.88;3.20;;;;;;;-144.47;79.18;53082.53;5025806;28;20033;-67
2023/03/11 10:51:46;;;;;;;6.47;3.10;;;;;;;-144.47;78.17;53080.53;5027091;28;20353;-66
2023/03/11 10:54:34;;;;;;;11.35;3.45;;;;;;;-144.47;77.33;53040.81;5026088;28;20657;-67
2023/03/11 10:57:02;;;;;;;6.47;3.13;;;;;;;-144.47;76.68;53052.72;5028951;28;20117;-66
2023/03/11 10:59:49;;;;;;;7.80;3.72;;;;;;;-144.47;77.60;53042.78;5027524;28;20033;-68
2023/03/11 11:02:34;;;;;;;8.20;3.00;;;;;;;-144.47;77.68;53038.81;5008302;28;20032;-69
2023/03/11 11:05:14;;;;;;;5.72;2.70;;;;;;;-144.47;78.19;53052.72;5026454;28;20040;-67
2023/03/11 11:07:41;;;;;;;6.82;3.08;;;;;;;-144.47;77.78;53018.97;5027827;28;20041;-66
2023/03/11 11:10:22;;;;;;;9.07;3.15;;;;;;;-144.47;77.88;53072.59;5023262;28;20044;-67
2023/03/11 11:12:56;;;;;;;6.85;2.83;;;;;;;-144.47;78.09;53088.47;5028566;28;20155;-66